createdAt,value
2018-02-14T00:00:26.273Z,16.50
2018-02-14T00:00:58.776Z,16.50
2018-02-14T00:01:30.499Z,16.50
2018-02-14T00:02:02.224Z,16.50
2018-02-14T00:02:34.724Z,16.50
2018-02-14T00:03:06.475Z,16.50
2018-02-14T00:03:38.199Z,16.50
2018-02-14T00:04:09.961Z,16.50
2018-02-14T00:04:42.425Z,16.50
2018-02-14T00:05:14.152Z,16.50
2018-02-14T00:05:45.884Z,16.50
2018-02-14T00:06:17.619Z,16.50
2018-02-14T00:06:50.105Z,16.50
2018-02-14T00:07:21.823Z,16.50
2018-02-14T00:07:54.314Z,16.50
2018-02-14T00:08:26.037Z,16.50
2018-02-14T00:08:58.536Z,16.50
2018-02-14T00:09:30.256Z,16.50
2018-02-14T00:10:01.995Z,16.50
2018-02-14T00:10:33.727Z,16.50
2018-02-14T00:11:06.251Z,16.50
2018-02-14T00:11:37.975Z,16.50
2018-02-14T00:12:09.812Z,16.50
2018-02-14T00:12:41.537Z,16.50
2018-02-14T00:13:13.278Z,16.50
2018-02-14T00:13:45.017Z,16.50
2018-02-14T00:14:17.519Z,16.50
2018-02-14T00:14:49.252Z,16.50
2018-02-14T00:15:20.981Z,16.50
2018-02-14T00:15:52.703Z,16.50
2018-02-14T00:16:25.224Z,16.50
2018-02-14T00:16:56.951Z,16.50
2018-02-14T00:17:28.682Z,16.50
2018-02-14T00:18:00.434Z,16.50
2018-02-14T00:18:32.163Z,16.50
2018-02-14T00:19:04.642Z,16.50
2018-02-14T00:19:36.361Z,16.50
2018-02-14T00:20:08.084Z,16.50
2018-02-14T00:20:40.590Z,16.50
2018-02-14T00:21:12.315Z,16.50
2018-02-14T00:21:44.047Z,16.50
2018-02-14T00:22:15.766Z,16.50
2018-02-14T00:22:48.283Z,16.50
2018-02-14T00:23:20.024Z,16.50
2018-02-14T00:23:51.754Z,16.50
2018-02-14T00:24:23.492Z,16.50
2018-02-14T00:24:55.223Z,16.50
2018-02-14T00:25:27.719Z,16.50
2018-02-14T00:25:59.436Z,16.50
2018-02-14T00:26:31.167Z,16.50
2018-02-14T00:27:03.659Z,16.50
2018-02-14T00:27:35.388Z,16.50
2018-02-14T00:28:07.125Z,16.50
2018-02-14T00:28:38.861Z,16.50
2018-02-14T00:29:11.369Z,16.50
2018-02-14T00:29:43.112Z,16.50
2018-02-14T00:30:14.920Z,16.50
2018-02-14T00:30:47.421Z,16.50
2018-02-14T00:31:19.146Z,16.50
2018-02-14T00:31:50.873Z,16.50
2018-02-14T00:32:22.615Z,16.50
2018-02-14T00:32:55.112Z,16.50
2018-02-14T00:33:26.836Z,16.50
2018-02-14T00:33:58.576Z,16.50
2018-02-14T00:34:31.128Z,16.50
2018-02-14T00:35:03.616Z,16.50
2018-02-14T00:35:35.343Z,16.50
2018-02-14T00:36:07.083Z,16.50
2018-02-14T00:36:39.607Z,16.50
2018-02-14T00:37:11.354Z,16.50
2018-02-14T00:37:43.089Z,16.50
2018-02-14T00:38:14.836Z,16.50
2018-02-14T00:38:46.564Z,16.50
2018-02-14T00:39:18.287Z,16.50
2018-02-14T00:39:50.012Z,16.50
2018-02-14T00:40:21.758Z,16.50
2018-02-14T00:40:53.483Z,16.50
2018-02-14T00:41:25.976Z,16.50
2018-02-14T00:41:57.711Z,16.50
2018-02-14T00:42:29.437Z,16.50
2018-02-14T00:43:01.949Z,16.50
2018-02-14T00:43:33.739Z,16.50
2018-02-14T00:44:06.276Z,16.50
2018-02-14T00:44:38.017Z,16.50
2018-02-14T00:45:09.764Z,16.50
2018-02-14T00:45:41.480Z,16.50
2018-02-14T00:46:13.216Z,16.50
2018-02-14T00:46:44.943Z,16.50
2018-02-14T00:47:16.690Z,16.50
2018-02-14T00:47:48.421Z,16.50
2018-02-14T00:48:20.929Z,16.50
2018-02-14T00:48:52.651Z,16.50
2018-02-14T00:49:24.384Z,16.50
2018-02-14T00:49:56.129Z,16.50
2018-02-14T00:50:28.613Z,16.50
2018-02-14T00:51:00.320Z,16.50
2018-02-14T00:51:32.819Z,16.50
2018-02-14T00:52:04.551Z,16.50
2018-02-14T00:52:36.274Z,16.50
2018-02-14T00:53:08.759Z,16.50
2018-02-14T00:53:40.520Z,16.60
2018-02-14T00:54:12.262Z,16.50
2018-02-14T00:54:43.989Z,16.60
2018-02-14T00:55:15.708Z,16.50
2018-02-14T00:55:48.215Z,16.60
2018-02-14T00:56:19.960Z,16.60
2018-02-14T00:56:51.699Z,16.60
2018-02-14T00:57:23.429Z,16.50
2018-02-14T00:57:55.158Z,16.60
2018-02-14T00:58:26.890Z,16.60
2018-02-14T00:58:59.397Z,16.60
2018-02-14T00:59:31.139Z,16.60
2018-02-14T01:00:02.872Z,16.60
2018-02-14T01:00:34.597Z,16.60
2018-02-14T01:01:06.323Z,16.60
2018-02-14T01:01:38.811Z,16.50
2018-02-14T01:02:10.576Z,16.50
2018-02-14T01:02:42.319Z,16.50
2018-02-14T01:03:14.062Z,16.60
2018-02-14T01:03:45.797Z,16.60
2018-02-14T01:04:17.655Z,16.60
2018-02-14T01:04:50.110Z,16.60
2018-02-14T01:05:21.851Z,16.60
2018-02-14T01:05:53.605Z,16.60
2018-02-14T01:06:25.316Z,16.60
2018-02-14T01:06:57.819Z,16.60
2018-02-14T01:07:29.569Z,16.60
2018-02-14T01:08:01.297Z,16.60
2018-02-14T01:08:33.045Z,16.60
2018-02-14T01:09:04.776Z,16.60
2018-02-14T01:09:36.497Z,16.60
2018-02-14T01:10:08.975Z,16.60
2018-02-14T01:10:40.714Z,16.60
2018-02-14T01:11:12.445Z,16.60
2018-02-14T01:11:45.010Z,16.60
2018-02-14T01:12:17.501Z,16.60
2018-02-14T01:12:49.227Z,16.60
2018-02-14T01:13:20.956Z,16.60
2018-02-14T01:13:53.503Z,16.60
2018-02-14T01:14:25.267Z,16.60
2018-02-14T01:14:57.764Z,16.60
2018-02-14T01:15:29.507Z,16.60
2018-02-14T01:16:01.232Z,16.60
2018-02-14T01:16:32.999Z,16.60
2018-02-14T01:17:04.805Z,16.60
2018-02-14T01:17:37.304Z,16.60
2018-02-14T01:18:09.033Z,16.60
2018-02-14T01:18:40.762Z,16.60
2018-02-14T01:19:13.263Z,16.60
2018-02-14T01:19:44.999Z,16.60
2018-02-14T01:20:16.772Z,16.60
2018-02-14T01:20:48.511Z,16.60
2018-02-14T01:21:20.257Z,16.60
2018-02-14T01:21:52.019Z,16.60
2018-02-14T01:22:23.741Z,16.60
2018-02-14T01:22:55.469Z,16.60
2018-02-14T01:23:27.203Z,16.60
2018-02-14T01:23:58.951Z,16.60
2018-02-14T01:24:31.406Z,16.60
2018-02-14T01:25:03.143Z,16.60
2018-02-14T01:25:34.859Z,16.60
2018-02-14T01:26:06.680Z,16.60
2018-02-14T01:26:38.427Z,16.60
2018-02-14T01:27:10.165Z,16.60
2018-02-14T01:27:41.883Z,16.60
2018-02-14T01:28:13.639Z,16.60
2018-02-14T01:28:45.370Z,16.60
2018-02-14T01:29:17.112Z,16.60
2018-02-14T01:29:48.834Z,16.60
2018-02-14T01:30:20.580Z,16.60
2018-02-14T01:30:52.339Z,16.60
2018-02-14T01:31:24.080Z,16.60
2018-02-14T01:31:55.814Z,16.60
2018-02-14T01:32:27.549Z,16.60
2018-02-14T01:33:00.038Z,16.70
2018-02-14T01:33:31.830Z,16.60
2018-02-14T01:34:03.552Z,16.60
2018-02-14T01:34:35.292Z,16.60
2018-02-14T01:35:07.017Z,16.60
2018-02-14T01:35:38.746Z,16.60
2018-02-14T01:36:10.468Z,16.60
2018-02-14T01:36:42.975Z,16.60
2018-02-14T01:37:14.731Z,16.60
2018-02-14T01:37:46.440Z,16.60
2018-02-14T01:38:18.164Z,16.60
2018-02-14T01:38:50.678Z,16.60
2018-02-14T01:39:22.565Z,16.60
2018-02-14T01:39:55.071Z,16.60
2018-02-14T01:40:26.811Z,16.60
2018-02-14T01:40:58.535Z,16.60
2018-02-14T01:41:30.272Z,16.60
2018-02-14T01:42:01.993Z,16.70
2018-02-14T01:42:33.720Z,16.60
2018-02-14T01:43:05.464Z,16.60
2018-02-14T01:43:37.178Z,16.60
2018-02-14T01:44:08.904Z,16.60
2018-02-14T01:44:40.634Z,16.60
2018-02-14T01:45:13.143Z,16.60
2018-02-14T01:45:44.900Z,16.70
2018-02-14T01:46:16.645Z,16.60
2018-02-14T01:46:48.367Z,16.60
2018-02-14T01:47:20.125Z,16.60
2018-02-14T01:47:51.858Z,16.60
2018-02-14T01:48:23.563Z,16.60
2018-02-14T01:48:55.291Z,16.60
2018-02-14T01:49:27.039Z,16.60
2018-02-14T01:49:59.544Z,16.60
2018-02-14T01:50:31.261Z,16.60
2018-02-14T01:51:02.980Z,16.60
2018-02-14T01:51:34.720Z,16.70
2018-02-14T01:52:07.222Z,16.70
2018-02-14T01:52:38.950Z,16.60
2018-02-14T01:53:10.665Z,16.60
2018-02-14T01:53:43.183Z,16.60
2018-02-14T01:54:14.900Z,16.60
2018-02-14T01:54:46.627Z,16.60
2018-02-14T01:55:18.360Z,16.60
2018-02-14T01:55:50.859Z,16.70
2018-02-14T01:56:22.587Z,16.60
2018-02-14T01:56:54.318Z,16.60
2018-02-14T01:57:26.805Z,16.70
2018-02-14T01:57:58.540Z,16.70
2018-02-14T01:58:30.276Z,16.70
2018-02-14T01:59:02.793Z,16.70
2018-02-14T01:59:34.534Z,16.70
2018-02-14T02:00:06.269Z,16.60
2018-02-14T02:00:37.983Z,16.60
2018-02-14T02:01:09.736Z,16.60
2018-02-14T02:01:41.459Z,16.70
2018-02-14T02:02:13.199Z,16.70
2018-02-14T02:02:44.927Z,16.70
2018-02-14T02:03:17.425Z,16.70
2018-02-14T02:03:49.155Z,16.70
2018-02-14T02:04:20.896Z,16.70
2018-02-14T02:04:52.653Z,16.70
2018-02-14T02:05:24.394Z,16.70
2018-02-14T02:05:56.863Z,16.70
2018-02-14T02:06:28.618Z,16.70
2018-02-14T02:07:00.377Z,16.70
2018-02-14T02:07:32.087Z,16.70
2018-02-14T02:08:03.816Z,16.70
2018-02-14T02:08:35.554Z,16.70
2018-02-14T02:09:08.052Z,16.70
2018-02-14T02:09:39.797Z,16.70
2018-02-14T02:10:11.527Z,16.70
2018-02-14T02:10:44.008Z,16.70
2018-02-14T02:11:16.273Z,16.70
2018-02-14T02:11:47.975Z,16.70
2018-02-14T02:12:19.716Z,16.70
2018-02-14T02:12:52.223Z,16.70
2018-02-14T02:13:23.964Z,16.70
2018-02-14T02:13:55.690Z,16.70
2018-02-14T02:14:27.427Z,16.70
2018-02-14T02:14:59.164Z,16.70
2018-02-14T02:15:31.691Z,16.70
2018-02-14T02:16:03.427Z,16.70
2018-02-14T02:16:35.149Z,16.70
2018-02-14T02:17:06.908Z,16.70
2018-02-14T02:17:38.628Z,16.70
2018-02-14T02:18:10.362Z,16.70
2018-02-14T02:18:42.113Z,16.70
2018-02-14T02:19:13.836Z,16.70
2018-02-14T02:19:45.578Z,16.70
2018-02-14T02:20:18.056Z,16.70
2018-02-14T02:20:49.788Z,16.70
2018-02-14T02:21:21.529Z,16.70
2018-02-14T02:21:53.268Z,16.70
2018-02-14T02:22:25.007Z,16.70
2018-02-14T02:22:57.546Z,16.70
2018-02-14T02:23:29.264Z,16.70
2018-02-14T02:24:00.995Z,16.70
2018-02-14T02:24:32.730Z,16.70
2018-02-14T02:25:04.460Z,16.70
2018-02-14T02:25:36.195Z,16.70
2018-02-14T02:26:08.690Z,16.70
2018-02-14T02:26:40.417Z,16.70
2018-02-14T02:27:12.149Z,16.70
2018-02-14T02:27:43.893Z,16.70
2018-02-14T02:28:16.379Z,16.70
2018-02-14T02:28:48.098Z,16.70
2018-02-14T02:29:19.855Z,16.70
2018-02-14T02:29:51.619Z,16.70
2018-02-14T02:30:23.343Z,16.70
2018-02-14T02:30:55.111Z,16.70
2018-02-14T02:31:26.832Z,16.80
2018-02-14T02:31:58.571Z,16.70
2018-02-14T02:32:31.131Z,16.80
2018-02-14T02:33:03.721Z,16.70
2018-02-14T02:33:35.447Z,16.70
2018-02-14T02:34:07.191Z,16.70
2018-02-14T02:34:38.919Z,16.70
2018-02-14T02:35:11.404Z,16.70
2018-02-14T02:35:43.127Z,16.70
2018-02-14T02:36:15.609Z,16.70
2018-02-14T02:36:47.353Z,16.70
2018-02-14T02:37:19.074Z,16.70
2018-02-14T02:37:51.558Z,16.70
2018-02-14T02:38:23.310Z,16.80
2018-02-14T02:38:55.030Z,16.70
2018-02-14T02:39:27.511Z,16.70
2018-02-14T02:39:59.252Z,16.70
2018-02-14T02:40:31.719Z,16.70
2018-02-14T02:41:03.456Z,16.70
2018-02-14T02:41:35.210Z,16.70
2018-02-14T02:42:06.927Z,16.70
2018-02-14T02:42:38.668Z,16.70
2018-02-14T02:43:11.171Z,16.70
2018-02-14T02:43:42.896Z,16.70
2018-02-14T02:44:14.636Z,16.70
2018-02-14T02:44:46.365Z,16.70
2018-02-14T02:45:18.972Z,16.70
2018-02-14T02:45:50.666Z,16.70
2018-02-14T02:46:23.172Z,16.70
2018-02-14T02:46:54.888Z,16.70
2018-02-14T02:47:26.631Z,16.70
2018-02-14T02:47:58.368Z,16.70
2018-02-14T02:48:30.868Z,16.70
2018-02-14T02:49:02.583Z,16.70
2018-02-14T02:49:34.326Z,16.70
2018-02-14T02:50:06.167Z,16.70
2018-02-14T02:50:38.663Z,16.70
2018-02-14T02:51:10.408Z,16.70
2018-02-14T02:51:42.122Z,16.70
2018-02-14T02:52:13.851Z,16.70
2018-02-14T02:52:46.334Z,16.70
2018-02-14T02:53:18.096Z,16.70
2018-02-14T02:53:49.824Z,16.70
2018-02-14T02:54:21.565Z,16.80
2018-02-14T02:54:53.303Z,16.70
2018-02-14T02:55:25.040Z,16.80
2018-02-14T02:55:57.542Z,16.70
2018-02-14T02:56:29.256Z,16.70
2018-02-14T02:57:01.003Z,16.80
2018-02-14T02:57:32.727Z,16.70
2018-02-14T02:58:05.234Z,16.70
2018-02-14T02:58:36.951Z,16.70
2018-02-14T02:59:08.691Z,16.70
2018-02-14T02:59:40.429Z,16.70
2018-02-14T03:00:12.913Z,16.70
2018-02-14T03:00:44.651Z,16.70
2018-02-14T03:01:16.388Z,16.70
2018-02-14T03:01:48.131Z,16.80
2018-02-14T03:02:19.860Z,16.80
2018-02-14T03:02:52.370Z,16.70
2018-02-14T03:03:24.220Z,16.70
2018-02-14T03:03:55.941Z,16.80
2018-02-14T03:04:27.674Z,16.80
2018-02-14T03:04:59.404Z,16.80
2018-02-14T03:05:31.905Z,16.80
2018-02-14T03:06:03.623Z,16.80
2018-02-14T03:06:35.370Z,16.80
2018-02-14T03:07:07.110Z,16.80
2018-02-14T03:07:38.853Z,16.80
2018-02-14T03:08:10.597Z,16.80
2018-02-14T03:08:42.321Z,16.80
2018-02-14T03:09:14.828Z,16.80
2018-02-14T03:09:46.552Z,16.80
2018-02-14T03:10:18.283Z,16.80
2018-02-14T03:10:50.801Z,16.80
2018-02-14T03:11:22.529Z,16.80
2018-02-14T03:11:54.256Z,16.80
2018-02-14T03:12:25.999Z,16.80
2018-02-14T03:12:57.723Z,16.80
2018-02-14T03:13:30.222Z,16.80
2018-02-14T03:14:01.939Z,16.80
2018-02-14T03:14:33.687Z,16.80
2018-02-14T03:15:05.425Z,16.70
2018-02-14T03:15:37.153Z,16.70
2018-02-14T03:16:09.648Z,16.80
2018-02-14T03:16:41.393Z,16.70
2018-02-14T03:17:13.115Z,16.80
2018-02-14T03:17:45.608Z,16.70
2018-02-14T03:18:17.359Z,16.70
2018-02-14T03:18:49.082Z,16.70
2018-02-14T03:19:20.808Z,16.70
2018-02-14T03:19:53.308Z,16.70
2018-02-14T03:20:25.041Z,16.70
2018-02-14T03:20:56.795Z,16.70
2018-02-14T03:21:28.517Z,16.70
2018-02-14T03:22:00.247Z,16.70
2018-02-14T03:22:32.739Z,16.70
2018-02-14T03:23:04.466Z,16.70
2018-02-14T03:23:36.208Z,16.80
2018-02-14T03:24:08.706Z,16.70
2018-02-14T03:24:40.417Z,16.70
2018-02-14T03:25:12.148Z,16.70
2018-02-14T03:25:43.891Z,16.70
2018-02-14T03:26:16.442Z,16.70
2018-02-14T03:26:48.941Z,16.80
2018-02-14T03:27:20.672Z,16.70
2018-02-14T03:27:52.405Z,16.80
2018-02-14T03:28:24.898Z,16.80
2018-02-14T03:28:56.638Z,16.80
2018-02-14T03:29:28.387Z,16.80
2018-02-14T03:30:00.135Z,16.80
2018-02-14T03:30:31.858Z,16.80
2018-02-14T03:31:03.597Z,16.70
2018-02-14T03:31:36.084Z,16.80
2018-02-14T03:32:07.809Z,16.80
2018-02-14T03:32:39.562Z,16.80
2018-02-14T03:33:11.285Z,16.80
2018-02-14T03:33:43.803Z,16.80
2018-02-14T03:34:15.528Z,16.80
2018-02-14T03:34:47.250Z,16.80
2018-02-14T03:35:19.010Z,16.80
2018-02-14T03:35:50.740Z,16.80
2018-02-14T03:36:22.493Z,16.80
2018-02-14T03:36:54.216Z,16.80
2018-02-14T03:37:25.949Z,16.80
2018-02-14T03:37:58.473Z,16.80
2018-02-14T03:38:30.222Z,16.80
2018-02-14T03:39:01.959Z,16.80
2018-02-14T03:39:33.697Z,16.80
2018-02-14T03:40:05.459Z,16.80
2018-02-14T03:40:37.174Z,16.80
2018-02-14T03:41:08.900Z,16.80
2018-02-14T03:41:40.644Z,16.80
2018-02-14T03:42:12.369Z,16.80
2018-02-14T03:42:44.864Z,16.80
2018-02-14T03:43:16.619Z,16.80
2018-02-14T03:43:48.354Z,16.80
2018-02-14T03:44:20.068Z,16.80
2018-02-14T03:44:51.805Z,16.80
2018-02-14T03:45:24.307Z,16.80
2018-02-14T03:45:56.067Z,16.80
2018-02-14T03:46:27.781Z,16.80
2018-02-14T03:46:59.502Z,16.80
2018-02-14T03:47:31.286Z,16.80
2018-02-14T03:48:03.006Z,16.80
2018-02-14T03:48:34.738Z,16.80
2018-02-14T03:49:06.479Z,16.80
2018-02-14T03:49:38.219Z,16.80
2018-02-14T03:50:09.949Z,16.80
2018-02-14T03:50:42.459Z,16.80
2018-02-14T03:51:14.207Z,16.80
2018-02-14T03:51:45.918Z,16.80
2018-02-14T03:52:17.666Z,16.80
2018-02-14T03:52:49.396Z,16.80
2018-02-14T03:53:21.139Z,16.80
2018-02-14T03:53:53.624Z,16.80
2018-02-14T03:54:25.385Z,16.80
2018-02-14T03:54:57.121Z,16.80
2018-02-14T03:55:28.844Z,16.80
2018-02-14T03:56:00.585Z,16.80
2018-02-14T03:56:32.311Z,16.80
2018-02-14T03:57:04.827Z,16.80
2018-02-14T03:57:36.567Z,16.80
2018-02-14T03:58:08.298Z,16.80
2018-02-14T03:58:40.013Z,16.80
2018-02-14T03:59:11.761Z,16.80
2018-02-14T03:59:44.260Z,16.80
2018-02-14T04:00:15.983Z,16.80
2018-02-14T04:00:47.731Z,16.80
2018-02-14T04:01:19.469Z,16.80
2018-02-14T04:01:51.215Z,16.80
2018-02-14T04:02:22.944Z,16.80
2018-02-14T04:02:55.443Z,16.80
2018-02-14T04:03:27.183Z,16.80
2018-02-14T04:03:58.905Z,16.80
2018-02-14T04:04:30.653Z,16.80
2018-02-14T04:05:02.393Z,16.80
2018-02-14T04:05:34.126Z,16.80
2018-02-14T04:06:06.633Z,16.80
2018-02-14T04:06:38.344Z,16.80
2018-02-14T04:07:10.083Z,16.80
2018-02-14T04:07:41.835Z,16.80
2018-02-14T04:08:13.560Z,16.80
2018-02-14T04:08:46.059Z,16.80
2018-02-14T04:09:17.792Z,16.80
2018-02-14T04:09:49.526Z,16.80
2018-02-14T04:10:21.280Z,16.80
2018-02-14T04:10:53.122Z,16.80
2018-02-14T04:11:24.873Z,16.80
2018-02-14T04:11:56.678Z,16.80
2018-02-14T04:12:28.446Z,16.80
2018-02-14T04:13:01.025Z,16.80
2018-02-14T04:13:32.744Z,16.80
2018-02-14T04:14:05.249Z,16.80
2018-02-14T04:14:36.963Z,16.80
2018-02-14T04:15:08.712Z,16.90
2018-02-14T04:15:40.461Z,16.80
2018-02-14T04:16:12.188Z,16.80
2018-02-14T04:16:43.928Z,16.80
2018-02-14T04:17:16.433Z,16.80
2018-02-14T04:17:48.172Z,16.80
2018-02-14T04:18:19.897Z,16.80
2018-02-14T04:18:51.637Z,16.80
2018-02-14T04:19:23.383Z,16.90
2018-02-14T04:19:55.117Z,16.80
2018-02-14T04:20:27.614Z,16.90
2018-02-14T04:20:59.348Z,16.80
2018-02-14T04:21:31.101Z,16.80
2018-02-14T04:22:02.824Z,16.80
2018-02-14T04:22:34.567Z,16.80
2018-02-14T04:23:06.335Z,16.80
2018-02-14T04:23:38.044Z,16.80
2018-02-14T04:24:10.544Z,16.80
2018-02-14T04:24:42.304Z,16.80
2018-02-14T04:25:14.013Z,16.80
2018-02-14T04:25:45.731Z,16.80
2018-02-14T04:26:18.252Z,16.90
2018-02-14T04:26:49.986Z,16.80
2018-02-14T04:27:21.700Z,16.80
2018-02-14T04:27:53.469Z,16.80
2018-02-14T04:28:25.199Z,16.90
2018-02-14T04:28:56.937Z,16.80
2018-02-14T04:29:28.679Z,16.80
2018-02-14T04:30:00.411Z,16.80
2018-02-14T04:30:32.146Z,16.80
2018-02-14T04:31:04.646Z,16.90
2018-02-14T04:31:36.368Z,16.90
2018-02-14T04:32:08.138Z,16.90
2018-02-14T04:32:39.859Z,16.90
2018-02-14T04:33:11.598Z,16.80
2018-02-14T04:33:43.331Z,16.80
2018-02-14T04:34:15.831Z,16.80
2018-02-14T04:34:47.574Z,16.90
2018-02-14T04:35:19.297Z,16.90
2018-02-14T04:35:51.800Z,16.90
2018-02-14T04:36:23.537Z,16.90
2018-02-14T04:36:55.272Z,16.90
2018-02-14T04:37:27.010Z,16.90
2018-02-14T04:37:58.737Z,16.90
2018-02-14T04:38:30.487Z,16.90
2018-02-14T04:39:02.972Z,16.90
2018-02-14T04:39:34.709Z,16.90
2018-02-14T04:40:06.436Z,16.90
2018-02-14T04:40:38.154Z,16.90
2018-02-14T04:41:10.713Z,16.90
2018-02-14T04:41:42.428Z,16.90
2018-02-14T04:42:14.171Z,16.90
2018-02-14T04:42:45.889Z,16.90
2018-02-14T04:43:17.636Z,16.80
2018-02-14T04:43:49.358Z,16.90
2018-02-14T04:44:21.086Z,16.80
2018-02-14T04:44:53.601Z,16.90
2018-02-14T04:45:25.335Z,16.90
2018-02-14T04:45:57.078Z,16.90
2018-02-14T04:46:28.801Z,16.90
2018-02-14T04:47:00.522Z,16.90
2018-02-14T04:47:33.045Z,16.90
2018-02-14T04:48:04.776Z,16.90
2018-02-14T04:48:36.520Z,16.90
2018-02-14T04:49:08.440Z,16.90
2018-02-14T04:49:40.237Z,16.90
2018-02-14T04:50:12.166Z,16.90
2018-02-14T04:50:43.879Z,16.90
2018-02-14T04:51:15.614Z,16.90
2018-02-14T04:51:48.179Z,16.90
2018-02-14T04:52:19.931Z,16.90
2018-02-14T04:52:51.660Z,16.90
2018-02-14T04:53:24.157Z,16.90
2018-02-14T04:53:55.896Z,16.90
2018-02-14T04:54:27.651Z,16.90
2018-02-14T04:54:59.367Z,16.90
2018-02-14T04:55:31.108Z,16.90
2018-02-14T04:56:02.845Z,16.90
2018-02-14T04:56:35.343Z,16.90
2018-02-14T04:57:07.081Z,16.90
2018-02-14T04:57:38.799Z,16.90
2018-02-14T04:58:10.539Z,16.90
2018-02-14T04:58:43.153Z,16.90
2018-02-14T04:59:14.862Z,16.90
2018-02-14T04:59:46.580Z,16.90
2018-02-14T05:00:19.093Z,16.90
2018-02-14T05:00:50.836Z,16.90
2018-02-14T05:01:22.560Z,16.90
2018-02-14T05:01:54.289Z,16.90
2018-02-14T05:02:26.785Z,17.00
2018-02-14T05:02:58.504Z,17.00
2018-02-14T05:03:30.253Z,17.00
2018-02-14T05:04:01.984Z,17.10
2018-02-14T05:04:34.483Z,17.10
2018-02-14T05:05:06.220Z,17.10
2018-02-14T05:05:37.944Z,17.10
2018-02-14T05:06:09.677Z,17.10
2018-02-14T05:06:41.406Z,17.20
2018-02-14T05:07:13.896Z,17.20
2018-02-14T05:07:45.627Z,17.20
2018-02-14T05:08:17.360Z,17.20
2018-02-14T05:08:49.847Z,17.30
2018-02-14T05:09:21.606Z,17.30
2018-02-14T05:09:53.349Z,17.30
2018-02-14T05:10:25.078Z,17.30
2018-02-14T05:10:56.804Z,17.30
2018-02-14T05:11:29.329Z,17.30
2018-02-14T05:12:01.077Z,17.30
2018-02-14T05:12:32.817Z,17.30
2018-02-14T05:13:04.545Z,17.30
2018-02-14T05:13:36.285Z,17.40
2018-02-14T05:14:08.005Z,17.30
2018-02-14T05:14:39.751Z,17.30
2018-02-14T05:15:11.484Z,17.30
2018-02-14T05:15:43.231Z,17.30
2018-02-14T05:16:15.730Z,17.30
2018-02-14T05:16:47.477Z,17.30
2018-02-14T05:17:19.209Z,17.30
2018-02-14T05:17:50.932Z,17.40
2018-02-14T05:18:22.690Z,17.40
2018-02-14T05:18:54.436Z,17.40
2018-02-14T05:19:26.920Z,17.40
2018-02-14T05:19:58.658Z,17.40
2018-02-14T05:20:30.380Z,17.40
2018-02-14T05:21:02.122Z,17.40
2018-02-14T05:21:33.851Z,17.40
2018-02-14T05:22:06.344Z,17.40
2018-02-14T05:22:38.081Z,17.40
2018-02-14T05:23:09.807Z,17.40
2018-02-14T05:23:42.337Z,17.30
2018-02-14T05:24:14.057Z,17.40
2018-02-14T05:24:45.796Z,17.40
2018-02-14T05:25:17.524Z,17.40
2018-02-14T05:25:49.259Z,17.40
2018-02-14T05:26:21.754Z,17.40
2018-02-14T05:26:53.531Z,17.40
2018-02-14T05:27:25.225Z,17.40
2018-02-14T05:27:56.970Z,17.40
2018-02-14T05:28:28.713Z,17.40
2018-02-14T05:29:00.440Z,17.40
2018-02-14T05:29:32.168Z,17.40
2018-02-14T05:30:04.672Z,17.40
2018-02-14T05:30:36.408Z,17.40
2018-02-14T05:31:08.132Z,17.40
2018-02-14T05:31:40.722Z,17.40
2018-02-14T05:32:13.254Z,17.40
2018-02-14T05:32:45.760Z,17.40
2018-02-14T05:33:17.516Z,17.40
2018-02-14T05:33:49.257Z,17.40
2018-02-14T05:34:20.999Z,17.40
2018-02-14T05:34:52.787Z,17.40
2018-02-14T05:35:25.280Z,17.40
2018-02-14T05:35:57.036Z,17.40
2018-02-14T05:36:28.761Z,17.40
2018-02-14T05:37:00.514Z,17.40
2018-02-14T05:37:32.248Z,17.40
2018-02-14T05:38:03.987Z,17.40
2018-02-14T05:38:35.719Z,17.40
2018-02-14T05:39:08.228Z,17.40
2018-02-14T05:39:39.969Z,17.40
2018-02-14T05:40:11.694Z,17.40
2018-02-14T05:40:43.419Z,17.40
2018-02-14T05:41:15.227Z,17.40
2018-02-14T05:41:47.246Z,17.40
2018-02-14T05:42:18.985Z,17.40
2018-02-14T05:42:50.720Z,17.40
2018-02-14T05:43:22.450Z,17.40
2018-02-14T05:43:54.183Z,17.40
2018-02-14T05:44:26.688Z,17.30
2018-02-14T05:44:58.424Z,17.40
2018-02-14T05:45:30.172Z,17.40
2018-02-14T05:46:01.947Z,17.40
2018-02-14T05:46:33.671Z,17.40
2018-02-14T05:47:05.403Z,17.40
2018-02-14T05:47:37.144Z,17.40
2018-02-14T05:48:08.887Z,17.30
2018-02-14T05:48:40.613Z,17.40
2018-02-14T05:49:12.359Z,17.40
2018-02-14T05:49:44.098Z,17.40
2018-02-14T05:50:16.609Z,17.40
2018-02-14T05:50:48.384Z,17.40
2018-02-14T05:51:20.106Z,17.40
2018-02-14T05:51:51.875Z,17.40
2018-02-14T05:52:23.607Z,17.40
2018-02-14T05:52:55.348Z,17.40
2018-02-14T05:53:27.078Z,17.30
2018-02-14T05:53:58.832Z,17.30
2018-02-14T05:54:30.606Z,17.30
2018-02-14T05:55:03.137Z,17.40
2018-02-14T05:55:34.878Z,17.30
2018-02-14T05:56:06.626Z,17.40
2018-02-14T05:56:38.378Z,17.40
2018-02-14T05:57:10.088Z,17.40
2018-02-14T05:57:41.819Z,17.40
2018-02-14T05:58:13.540Z,17.40
2018-02-14T05:58:46.035Z,17.40
2018-02-14T05:59:17.771Z,17.40
2018-02-14T05:59:49.495Z,17.40
2018-02-14T06:00:21.241Z,17.40
2018-02-14T06:00:52.981Z,17.40
2018-02-14T06:01:25.489Z,17.40
2018-02-14T06:01:57.231Z,17.40
2018-02-14T06:02:28.961Z,17.40
2018-02-14T06:03:00.704Z,17.40
2018-02-14T06:03:32.463Z,17.40
2018-02-14T06:04:04.204Z,17.40
2018-02-14T06:04:35.975Z,17.40
2018-02-14T06:05:07.683Z,17.40
2018-02-14T06:05:39.437Z,17.40
2018-02-14T06:06:11.175Z,17.40
2018-02-14T06:06:42.920Z,17.40
2018-02-14T06:07:14.656Z,17.40
2018-02-14T06:07:46.386Z,17.30
2018-02-14T06:08:18.119Z,17.40
2018-02-14T06:08:50.631Z,17.40
2018-02-14T06:09:22.371Z,17.40
2018-02-14T06:09:54.110Z,17.40
2018-02-14T06:10:25.903Z,17.40
2018-02-14T06:10:58.448Z,17.40
2018-02-14T06:11:30.229Z,17.40
2018-02-14T06:12:02.722Z,17.40
2018-02-14T06:12:34.469Z,17.40
2018-02-14T06:13:06.211Z,17.40
2018-02-14T06:13:37.956Z,17.40
2018-02-14T06:14:09.729Z,17.40
2018-02-14T06:14:41.625Z,17.40
2018-02-14T06:15:13.388Z,17.40
2018-02-14T06:15:45.155Z,17.40
2018-02-14T06:16:16.911Z,17.40
2018-02-14T06:16:48.644Z,17.40
2018-02-14T06:17:20.424Z,17.40
2018-02-14T06:17:52.135Z,17.40
2018-02-14T06:18:23.884Z,17.40
2018-02-14T06:18:55.631Z,17.40
2018-02-14T06:19:27.420Z,17.40
2018-02-14T06:19:59.977Z,17.40
2018-02-14T06:20:32.539Z,17.40
2018-02-14T06:21:04.290Z,17.40
2018-02-14T06:21:36.043Z,17.40
2018-02-14T06:22:07.812Z,17.40
2018-02-14T06:22:39.569Z,17.40
2018-02-14T06:23:11.321Z,17.40
2018-02-14T06:23:43.072Z,17.40
2018-02-14T06:24:14.886Z,17.40
2018-02-14T06:24:46.649Z,17.40
2018-02-14T06:25:18.402Z,17.40
2018-02-14T06:25:50.172Z,17.40
2018-02-14T06:26:21.961Z,17.40
2018-02-14T06:26:53.751Z,17.40
2018-02-14T06:27:25.503Z,17.40
2018-02-14T06:27:57.244Z,17.40
2018-02-14T06:28:29.234Z,17.40
2018-02-14T06:29:01.806Z,17.40
2018-02-14T06:29:33.548Z,17.40
2018-02-14T06:30:05.361Z,17.40
2018-02-14T06:30:37.876Z,17.40
2018-02-14T06:31:09.657Z,17.40
2018-02-14T06:31:41.418Z,17.40
2018-02-14T06:32:13.144Z,17.40
2018-02-14T06:32:45.075Z,17.40
2018-02-14T06:33:17.572Z,17.40
2018-02-14T06:33:50.233Z,17.40
2018-02-14T06:34:22.751Z,17.40
2018-02-14T06:34:54.556Z,17.40
2018-02-14T06:35:26.307Z,17.40
2018-02-14T06:35:58.108Z,17.40
2018-02-14T06:36:29.932Z,17.40
2018-02-14T06:37:01.645Z,17.40
2018-02-14T06:37:33.376Z,17.40
2018-02-14T06:38:05.133Z,17.40
2018-02-14T06:38:36.855Z,17.40
2018-02-14T06:39:09.354Z,17.40
2018-02-14T06:39:41.079Z,17.40
2018-02-14T06:40:12.850Z,17.40
2018-02-14T06:40:44.802Z,17.40
2018-02-14T06:41:16.511Z,17.40
2018-02-14T06:41:48.248Z,17.40
2018-02-14T06:42:20.745Z,17.40
2018-02-14T06:42:52.489Z,17.40
2018-02-14T06:43:24.221Z,17.40
2018-02-14T06:43:55.976Z,17.40
2018-02-14T06:44:27.708Z,17.40
2018-02-14T06:44:59.444Z,17.40
2018-02-14T06:45:31.179Z,17.40
2018-02-14T06:46:02.963Z,17.40
2018-02-14T06:46:34.673Z,17.40
2018-02-14T06:47:07.195Z,17.40
2018-02-14T06:47:38.944Z,17.40
2018-02-14T06:48:10.677Z,17.40
2018-02-14T06:48:42.432Z,17.40
2018-02-14T06:49:14.189Z,17.40
2018-02-14T06:49:46.707Z,17.40
2018-02-14T06:50:18.487Z,17.40
2018-02-14T06:50:50.211Z,17.40